sensor_id;sensor_type;location;lat;lon;timestamp;P1;durP1;ratioP1;P2;durP2;ratioP2
74616;SDS011;63123;50.906;4.198;2023-07-13T00:01:30;1.67;;;0.90;;
74616;SDS011;63123;50.906;4.198;2023-07-13T00:03:57;1.15;;;0.82;;
74616;SDS011;63123;50.906;4.198;2023-07-13T00:06:22;0.90;;;0.77;;
74616;SDS011;63123;50.906;4.198;2023-07-13T00:08:48;1.00;;;0.88;;
74616;SDS011;63123;50.906;4.198;2023-07-13T00:11:14;0.95;;;0.70;;
74616;SDS011;63123;50.906;4.198;2023-07-13T00:13:41;3.00;;;1.10;;
74616;SDS011;63123;50.906;4.198;2023-07-13T00:16:08;0.90;;;0.80;;
74616;SDS011;63123;50.906;4.198;2023-07-13T00:18:35;1.40;;;0.90;;
74616;SDS011;63123;50.906;4.198;2023-07-13T00:21:01;1.50;;;0.80;;
74616;SDS011;63123;50.906;4.198;2023-07-13T00:23:30;1.23;;;0.88;;
74616;SDS011;63123;50.906;4.198;2023-07-13T00:25:58;1.38;;;0.98;;
74616;SDS011;63123;50.906;4.198;2023-07-13T00:28:25;1.02;;;0.70;;
74616;SDS011;63123;50.906;4.198;2023-07-13T00:30:50;0.98;;;0.70;;
74616;SDS011;63123;50.906;4.198;2023-07-13T00:33:16;1.20;;;0.70;;
74616;SDS011;63123;50.906;4.198;2023-07-13T00:35:41;1.10;;;0.70;;
74616;SDS011;63123;50.906;4.198;2023-07-13T00:38:08;1.20;;;0.70;;
74616;SDS011;63123;50.906;4.198;2023-07-13T00:40:34;1.30;;;0.90;;
74616;SDS011;63123;50.906;4.198;2023-07-13T00:43:00;1.55;;;0.77;;
74616;SDS011;63123;50.906;4.198;2023-07-13T00:47:51;1.55;;;1.00;;
74616;SDS011;63123;50.906;4.198;2023-07-13T00:50:17;1.30;;;0.73;;
74616;SDS011;63123;50.906;4.198;2023-07-13T00:52:46;1.80;;;0.80;;
74616;SDS011;63123;50.906;4.198;2023-07-13T00:55:16;1.65;;;0.98;;
74616;SDS011;63123;50.906;4.198;2023-07-13T00:57:43;3.75;;;1.00;;
74616;SDS011;63123;50.906;4.198;2023-07-13T01:00:10;0.93;;;0.80;;
74616;SDS011;63123;50.906;4.198;2023-07-13T01:02:42;1.23;;;0.80;;
74616;SDS011;63123;50.906;4.198;2023-07-13T01:05:12;1.10;;;0.70;;
74616;SDS011;63123;50.906;4.198;2023-07-13T01:07:41;1.58;;;0.88;;
74616;SDS011;63123;50.906;4.198;2023-07-13T01:10:09;1.20;;;0.80;;
74616;SDS011;63123;50.906;4.198;2023-07-13T01:12:36;1.38;;;1.00;;
74616;SDS011;63123;50.906;4.198;2023-07-13T01:15:02;1.60;;;0.80;;
74616;SDS011;63123;50.906;4.198;2023-07-13T01:17:29;0.90;;;0.70;;
74616;SDS011;63123;50.906;4.198;2023-07-13T01:19:56;1.80;;;0.95;;
74616;SDS011;63123;50.906;4.198;2023-07-13T01:22:21;1.38;;;0.80;;
74616;SDS011;63123;50.906;4.198;2023-07-13T01:24:51;1.23;;;0.80;;
74616;SDS011;63123;50.906;4.198;2023-07-13T01:27:21;1.25;;;0.82;;
74616;SDS011;63123;50.906;4.198;2023-07-13T01:29:49;1.33;;;0.80;;
74616;SDS011;63123;50.906;4.198;2023-07-13T01:32:18;1.35;;;0.77;;
74616;SDS011;63123;50.906;4.198;2023-07-13T01:34:46;1.77;;;0.95;;
74616;SDS011;63123;50.906;4.198;2023-07-13T01:37:12;0.82;;;0.80;;
74616;SDS011;63123;50.906;4.198;2023-07-13T01:39:38;1.15;;;0.80;;
74616;SDS011;63123;50.906;4.198;2023-07-13T01:42:04;1.88;;;1.02;;
74616;SDS011;63123;50.906;4.198;2023-07-13T01:44:30;0.80;;;0.70;;
74616;SDS011;63123;50.906;4.198;2023-07-13T01:46:55;0.85;;;0.80;;
74616;SDS011;63123;50.906;4.198;2023-07-13T01:49:22;1.85;;;0.95;;
74616;SDS011;63123;50.906;4.198;2023-07-13T01:51:48;1.65;;;1.02;;
74616;SDS011;63123;50.906;4.198;2023-07-13T01:54:13;1.10;;;1.00;;
74616;SDS011;63123;50.906;4.198;2023-07-13T01:56:39;0.82;;;0.65;;
74616;SDS011;63123;50.906;4.198;2023-07-13T01:59:06;1.25;;;0.90;;
74616;SDS011;63123;50.906;4.198;2023-07-13T02:01:32;1.00;;;0.70;;
74616;SDS011;63123;50.906;4.198;2023-07-13T02:03:58;1.10;;;0.80;;
74616;SDS011;63123;50.906;4.198;2023-07-13T02:06:23;0.82;;;0.70;;
74616;SDS011;63123;50.906;4.198;2023-07-13T02:08:49;0.70;;;0.60;;
74616;SDS011;63123;50.906;4.198;2023-07-13T02:11:14;1.90;;;0.95;;
74616;SDS011;63123;50.906;4.198;2023-07-13T02:13:40;2.67;;;0.90;;
74616;SDS011;63123;50.906;4.198;2023-07-13T02:16:06;1.33;;;1.00;;
74616;SDS011;63123;50.906;4.198;2023-07-13T02:18:31;1.95;;;0.90;;
74616;SDS011;63123;50.906;4.198;2023-07-13T02:20:57;1.27;;;0.95;;
74616;SDS011;63123;50.906;4.198;2023-07-13T02:23:23;1.08;;;0.98;;
74616;SDS011;63123;50.906;4.198;2023-07-13T02:25:48;1.52;;;1.05;;
74616;SDS011;63123;50.906;4.198;2023-07-13T02:28:14;1.08;;;0.65;;
74616;SDS011;63123;50.906;4.198;2023-07-13T02:30:40;1.00;;;0.80;;
74616;SDS011;63123;50.906;4.198;2023-07-13T02:33:06;1.27;;;1.10;;
74616;SDS011;63123;50.906;4.198;2023-07-13T02:35:31;1.15;;;0.90;;
74616;SDS011;63123;50.906;4.198;2023-07-13T02:37:57;0.98;;;0.75;;
74616;SDS011;63123;50.906;4.198;2023-07-13T02:40:23;1.50;;;0.80;;
74616;SDS011;63123;50.906;4.198;2023-07-13T02:42:48;0.98;;;0.70;;
74616;SDS011;63123;50.906;4.198;2023-07-13T02:45:14;1.52;;;0.95;;
74616;SDS011;63123;50.906;4.198;2023-07-13T02:47:40;1.70;;;0.90;;
74616;SDS011;63123;50.906;4.198;2023-07-13T02:50:07;1.95;;;1.42;;
74616;SDS011;63123;50.906;4.198;2023-07-13T02:52:33;1.42;;;0.93;;
74616;SDS011;63123;50.906;4.198;2023-07-13T02:54:58;3.47;;;1.13;;
74616;SDS011;63123;50.906;4.198;2023-07-13T02:57:24;0.82;;;0.75;;
74616;SDS011;63123;50.906;4.198;2023-07-13T02:59:50;2.22;;;0.80;;
74616;SDS011;63123;50.906;4.198;2023-07-13T03:02:16;1.42;;;1.00;;
74616;SDS011;63123;50.906;4.198;2023-07-13T03:04:41;1.75;;;0.82;;
74616;SDS011;63123;50.906;4.198;2023-07-13T03:07:07;1.40;;;0.88;;
74616;SDS011;63123;50.906;4.198;2023-07-13T03:09:33;1.25;;;1.05;;
74616;SDS011;63123;50.906;4.198;2023-07-13T03:11:59;0.85;;;0.70;;
74616;SDS011;63123;50.906;4.198;2023-07-13T03:14:26;2.22;;;0.80;;
74616;SDS011;63123;50.906;4.198;2023-07-13T03:16:51;1.90;;;1.00;;
74616;SDS011;63123;50.906;4.198;2023-07-13T03:19:17;1.15;;;0.85;;
74616;SDS011;63123;50.906;4.198;2023-07-13T03:21:43;0.70;;;0.70;;
74616;SDS011;63123;50.906;4.198;2023-07-13T03:24:09;2.22;;;1.17;;
74616;SDS011;63123;50.906;4.198;2023-07-13T03:26:35;0.95;;;0.80;;
74616;SDS011;63123;50.906;4.198;2023-07-13T03:29:01;1.20;;;0.80;;
74616;SDS011;63123;50.906;4.198;2023-07-13T03:31:29;1.38;;;1.05;;
74616;SDS011;63123;50.906;4.198;2023-07-13T03:33:57;0.75;;;0.70;;
74616;SDS011;63123;50.906;4.198;2023-07-13T03:36:24;1.10;;;1.00;;
74616;SDS011;63123;50.906;4.198;2023-07-13T03:38:53;1.98;;;0.85;;
74616;SDS011;63123;50.906;4.198;2023-07-13T03:41:20;1.02;;;0.80;;
74616;SDS011;63123;50.906;4.198;2023-07-13T03:43:47;1.38;;;0.90;;
74616;SDS011;63123;50.906;4.198;2023-07-13T03:46:13;0.82;;;0.73;;
74616;SDS011;63123;50.906;4.198;2023-07-13T03:48:40;1.20;;;1.05;;
74616;SDS011;63123;50.906;4.198;2023-07-13T03:51:07;0.90;;;0.80;;
74616;SDS011;63123;50.906;4.198;2023-07-13T03:53:35;3.22;;;1.02;;
74616;SDS011;63123;50.906;4.198;2023-07-13T03:56:03;2.00;;;0.93;;
74616;SDS011;63123;50.906;4.198;2023-07-13T03:58:32;1.65;;;1.17;;
74616;SDS011;63123;50.906;4.198;2023-07-13T04:01:03;1.08;;;0.70;;
74616;SDS011;63123;50.906;4.198;2023-07-13T04:03:30;1.17;;;1.00;;
74616;SDS011;63123;50.906;4.198;2023-07-13T04:05:58;1.42;;;0.90;;
74616;SDS011;63123;50.906;4.198;2023-07-13T04:08:29;1.85;;;1.08;;
74616;SDS011;63123;50.906;4.198;2023-07-13T04:10:56;0.80;;;0.80;;
74616;SDS011;63123;50.906;4.198;2023-07-13T04:13:23;1.10;;;0.80;;
74616;SDS011;63123;50.906;4.198;2023-07-13T04:15:49;1.70;;;0.98;;
74616;SDS011;63123;50.906;4.198;2023-07-13T04:18:15;1.13;;;1.00;;
74616;SDS011;63123;50.906;4.198;2023-07-13T04:20:40;1.35;;;0.80;;
74616;SDS011;63123;50.906;4.198;2023-07-13T04:23:06;1.48;;;1.10;;
74616;SDS011;63123;50.906;4.198;2023-07-13T04:25:32;1.40;;;1.08;;
74616;SDS011;63123;50.906;4.198;2023-07-13T04:27:57;1.38;;;0.77;;
74616;SDS011;63123;50.906;4.198;2023-07-13T04:30:23;1.48;;;1.00;;
74616;SDS011;63123;50.906;4.198;2023-07-13T04:32:52;1.42;;;1.23;;
74616;SDS011;63123;50.906;4.198;2023-07-13T04:35:18;0.95;;;0.70;;
74616;SDS011;63123;50.906;4.198;2023-07-13T04:37:49;1.33;;;1.02;;
74616;SDS011;63123;50.906;4.198;2023-07-13T04:40:18;1.50;;;1.20;;
74616;SDS011;63123;50.906;4.198;2023-07-13T04:42:45;1.70;;;1.30;;
74616;SDS011;63123;50.906;4.198;2023-07-13T04:45:11;1.00;;;0.80;;
74616;SDS011;63123;50.906;4.198;2023-07-13T04:47:38;1.88;;;0.90;;
74616;SDS011;63123;50.906;4.198;2023-07-13T04:50:04;1.35;;;0.80;;
74616;SDS011;63123;50.906;4.198;2023-07-13T04:52:31;0.90;;;0.80;;
74616;SDS011;63123;50.906;4.198;2023-07-13T04:54:58;1.58;;;1.10;;
74616;SDS011;63123;50.906;4.198;2023-07-13T04:57:24;1.50;;;1.13;;
74616;SDS011;63123;50.906;4.198;2023-07-13T04:59:50;1.10;;;1.00;;
74616;SDS011;63123;50.906;4.198;2023-07-13T05:02:15;1.90;;;0.90;;
74616;SDS011;63123;50.906;4.198;2023-07-13T05:04:41;0.95;;;0.70;;
74616;SDS011;63123;50.906;4.198;2023-07-13T05:07:06;0.80;;;0.80;;
74616;SDS011;63123;50.906;4.198;2023-07-13T05:09:32;1.30;;;0.80;;
74616;SDS011;63123;50.906;4.198;2023-07-13T05:11:58;1.80;;;1.17;;
74616;SDS011;63123;50.906;4.198;2023-07-13T05:14:23;2.22;;;0.93;;
74616;SDS011;63123;50.906;4.198;2023-07-13T05:16:49;1.85;;;0.98;;
74616;SDS011;63123;50.906;4.198;2023-07-13T05:19:14;1.27;;;1.15;;
74616;SDS011;63123;50.906;4.198;2023-07-13T05:21:40;1.05;;;0.82;;
74616;SDS011;63123;50.906;4.198;2023-07-13T05:24:06;1.05;;;0.80;;
74616;SDS011;63123;50.906;4.198;2023-07-13T05:26:32;1.95;;;1.13;;
74616;SDS011;63123;50.906;4.198;2023-07-13T05:28:57;1.48;;;1.27;;
74616;SDS011;63123;50.906;4.198;2023-07-13T05:31:23;2.45;;;1.02;;
74616;SDS011;63123;50.906;4.198;2023-07-13T05:33:49;1.70;;;1.00;;
74616;SDS011;63123;50.906;4.198;2023-07-13T05:36:14;1.30;;;0.93;;
74616;SDS011;63123;50.906;4.198;2023-07-13T05:38:40;1.60;;;0.85;;
74616;SDS011;63123;50.906;4.198;2023-07-13T05:41:06;1.10;;;0.80;;
74616;SDS011;63123;50.906;4.198;2023-07-13T05:43:31;1.20;;;1.10;;
74616;SDS011;63123;50.906;4.198;2023-07-13T05:45:57;2.50;;;0.98;;
74616;SDS011;63123;50.906;4.198;2023-07-13T05:48:23;1.85;;;1.05;;
74616;SDS011;63123;50.906;4.198;2023-07-13T05:50:49;1.58;;;1.05;;
74616;SDS011;63123;50.906;4.198;2023-07-13T05:53:15;2.22;;;1.10;;
74616;SDS011;63123;50.906;4.198;2023-07-13T05:55:44;1.98;;;1.30;;
74616;SDS011;63123;50.906;4.198;2023-07-13T05:58:18;2.40;;;1.15;;
74616;SDS011;63123;50.906;4.198;2023-07-13T06:00:44;2.58;;;1.55;;
74616;SDS011;63123;50.906;4.198;2023-07-13T06:03:11;2.10;;;1.15;;
74616;SDS011;63123;50.906;4.198;2023-07-13T06:05:36;2.35;;;1.40;;
74616;SDS011;63123;50.906;4.198;2023-07-13T06:08:04;1.60;;;1.15;;
74616;SDS011;63123;50.906;4.198;2023-07-13T06:10:34;3.92;;;1.52;;
74616;SDS011;63123;50.906;4.198;2023-07-13T06:13:01;3.33;;;1.58;;
74616;SDS011;63123;50.906;4.198;2023-07-13T06:15:27;2.90;;;1.58;;
74616;SDS011;63123;50.906;4.198;2023-07-13T06:17:52;2.88;;;1.50;;
74616;SDS011;63123;50.906;4.198;2023-07-13T06:20:18;1.85;;;1.38;;
74616;SDS011;63123;50.906;4.198;2023-07-13T06:22:43;1.77;;;1.48;;
74616;SDS011;63123;50.906;4.198;2023-07-13T06:25:09;2.70;;;1.20;;
74616;SDS011;63123;50.906;4.198;2023-07-13T06:27:35;2.72;;;1.50;;
74616;SDS011;63123;50.906;4.198;2023-07-13T06:30:00;2.38;;;1.35;;
74616;SDS011;63123;50.906;4.198;2023-07-13T06:32:26;2.58;;;1.42;;
74616;SDS011;63123;50.906;4.198;2023-07-13T06:34:52;3.78;;;1.70;;
74616;SDS011;63123;50.906;4.198;2023-07-13T06:37:18;2.53;;;1.60;;
74616;SDS011;63123;50.906;4.198;2023-07-13T06:39:43;3.00;;;1.42;;
74616;SDS011;63123;50.906;4.198;2023-07-13T06:42:09;2.67;;;1.42;;
74616;SDS011;63123;50.906;4.198;2023-07-13T06:44:35;2.08;;;1.20;;
74616;SDS011;63123;50.906;4.198;2023-07-13T06:47:01;2.15;;;1.40;;
74616;SDS011;63123;50.906;4.198;2023-07-13T06:49:27;2.10;;;1.45;;
74616;SDS011;63123;50.906;4.198;2023-07-13T06:51:52;2.83;;;1.42;;
74616;SDS011;63123;50.906;4.198;2023-07-13T06:54:18;1.42;;;1.10;;
74616;SDS011;63123;50.906;4.198;2023-07-13T06:56:43;2.33;;;1.40;;
74616;SDS011;63123;50.906;4.198;2023-07-13T06:59:09;3.03;;;1.60;;
74616;SDS011;63123;50.906;4.198;2023-07-13T07:01:34;2.50;;;1.15;;
74616;SDS011;63123;50.906;4.198;2023-07-13T07:04:00;3.05;;;1.67;;
74616;SDS011;63123;50.906;4.198;2023-07-13T07:06:26;3.92;;;2.17;;
74616;SDS011;63123;50.906;4.198;2023-07-13T07:08:51;2.38;;;1.55;;
74616;SDS011;63123;50.906;4.198;2023-07-13T07:11:22;2.42;;;1.48;;
74616;SDS011;63123;50.906;4.198;2023-07-13T07:13:49;1.65;;;1.52;;
74616;SDS011;63123;50.906;4.198;2023-07-13T07:16:16;2.00;;;1.42;;
74616;SDS011;63123;50.906;4.198;2023-07-13T07:18:42;2.63;;;1.48;;
74616;SDS011;63123;50.906;4.198;2023-07-13T07:21:08;2.95;;;1.60;;
74616;SDS011;63123;50.906;4.198;2023-07-13T07:23:34;2.42;;;1.48;;
74616;SDS011;63123;50.906;4.198;2023-07-13T07:25:59;1.58;;;1.35;;
74616;SDS011;63123;50.906;4.198;2023-07-13T07:28:25;3.35;;;1.42;;
74616;SDS011;63123;50.906;4.198;2023-07-13T07:30:53;2.25;;;1.40;;
74616;SDS011;63123;50.906;4.198;2023-07-13T07:33:21;3.22;;;1.58;;
74616;SDS011;63123;50.906;4.198;2023-07-13T07:35:47;1.75;;;1.55;;
74616;SDS011;63123;50.906;4.198;2023-07-13T07:38:12;2.75;;;1.60;;
74616;SDS011;63123;50.906;4.198;2023-07-13T07:40:39;2.47;;;1.88;;
74616;SDS011;63123;50.906;4.198;2023-07-13T07:43:06;2.28;;;1.60;;
74616;SDS011;63123;50.906;4.198;2023-07-13T07:45:32;2.58;;;1.48;;
74616;SDS011;63123;50.906;4.198;2023-07-13T07:47:58;2.05;;;1.70;;
74616;SDS011;63123;50.906;4.198;2023-07-13T07:50:24;1.67;;;1.50;;
74616;SDS011;63123;50.906;4.198;2023-07-13T07:52:51;2.03;;;1.42;;
74616;SDS011;63123;50.906;4.198;2023-07-13T07:55:17;2.55;;;1.73;;
74616;SDS011;63123;50.906;4.198;2023-07-13T07:57:43;2.50;;;1.33;;
74616;SDS011;63123;50.906;4.198;2023-07-13T08:00:09;1.45;;;1.27;;
74616;SDS011;63123;50.906;4.198;2023-07-13T08:02:35;1.30;;;1.20;;
74616;SDS011;63123;50.906;4.198;2023-07-13T08:05:00;2.20;;;1.50;;
74616;SDS011;63123;50.906;4.198;2023-07-13T08:07:26;2.28;;;1.25;;
74616;SDS011;63123;50.906;4.198;2023-07-13T08:09:52;2.03;;;1.60;;
74616;SDS011;63123;50.906;4.198;2023-07-13T08:12:18;1.58;;;1.23;;
74616;SDS011;63123;50.906;4.198;2023-07-13T08:14:43;2.35;;;1.90;;
74616;SDS011;63123;50.906;4.198;2023-07-13T08:17:09;2.42;;;1.58;;
74616;SDS011;63123;50.906;4.198;2023-07-13T08:19:34;1.98;;;1.77;;
74616;SDS011;63123;50.906;4.198;2023-07-13T08:22:00;2.38;;;1.33;;
74616;SDS011;63123;50.906;4.198;2023-07-13T08:24:26;3.83;;;1.55;;
74616;SDS011;63123;50.906;4.198;2023-07-13T08:26:51;1.70;;;1.33;;
74616;SDS011;63123;50.906;4.198;2023-07-13T08:29:17;2.22;;;1.35;;
74616;SDS011;63123;50.906;4.198;2023-07-13T08:31:43;2.47;;;1.45;;
74616;SDS011;63123;50.906;4.198;2023-07-13T08:34:09;2.05;;;1.52;;
74616;SDS011;63123;50.906;4.198;2023-07-13T08:36:35;3.33;;;1.50;;
74616;SDS011;63123;50.906;4.198;2023-07-13T08:39:01;2.92;;;1.65;;
74616;SDS011;63123;50.906;4.198;2023-07-13T08:41:27;2.15;;;1.40;;
74616;SDS011;63123;50.906;4.198;2023-07-13T08:43:58;2.17;;;1.30;;
74616;SDS011;63123;50.906;4.198;2023-07-13T08:46:27;2.10;;;1.90;;
74616;SDS011;63123;50.906;4.198;2023-07-13T08:49:15;2.60;;;1.75;;
74616;SDS011;63123;50.906;4.198;2023-07-13T08:51:45;1.67;;;1.55;;
74616;SDS011;63123;50.906;4.198;2023-07-13T08:54:28;2.88;;;1.98;;
74616;SDS011;63123;50.906;4.198;2023-07-13T08:56:57;2.30;;;1.58;;
74616;SDS011;63123;50.906;4.198;2023-07-13T08:59:27;2.85;;;1.83;;
74616;SDS011;63123;50.906;4.198;2023-07-13T09:02:43;2.45;;;1.75;;
74616;SDS011;63123;50.906;4.198;2023-07-13T09:04:50;2.22;;;1.75;;
74616;SDS011;63123;50.906;4.198;2023-07-13T09:10:26;1.58;;;1.27;;
74616;SDS011;63123;50.906;4.198;2023-07-13T09:13:01;2.28;;;1.40;;
74616;SDS011;63123;50.906;4.198;2023-07-13T09:15:44;2.38;;;2.10;;
74616;SDS011;63123;50.906;4.198;2023-07-13T09:18:15;1.90;;;1.45;;
74616;SDS011;63123;50.906;4.198;2023-07-13T09:21:13;1.83;;;1.38;;
74616;SDS011;63123;50.906;4.198;2023-07-13T09:23:42;2.50;;;1.67;;
74616;SDS011;63123;50.906;4.198;2023-07-13T09:26:18;2.85;;;2.05;;
74616;SDS011;63123;50.906;4.198;2023-07-13T09:28:47;1.70;;;1.33;;
74616;SDS011;63123;50.906;4.198;2023-07-13T09:33:51;1.83;;;1.23;;
74616;SDS011;63123;50.906;4.198;2023-07-13T09:36:21;3.03;;;1.77;;
74616;SDS011;63123;50.906;4.198;2023-07-13T09:41:39;2.28;;;1.50;;
74616;SDS011;63123;50.906;4.198;2023-07-13T09:44:30;2.67;;;1.38;;
74616;SDS011;63123;50.906;4.198;2023-07-13T09:47:00;2.80;;;1.90;;
74616;SDS011;63123;50.906;4.198;2023-07-13T09:49:27;1.52;;;1.42;;
74616;SDS011;63123;50.906;4.198;2023-07-13T09:52:05;1.80;;;1.15;;
74616;SDS011;63123;50.906;4.198;2023-07-13T09:54:35;2.17;;;1.52;;
74616;SDS011;63123;50.906;4.198;2023-07-13T09:57:02;1.50;;;1.40;;
74616;SDS011;63123;50.906;4.198;2023-07-13T09:59:40;2.10;;;1.50;;
74616;SDS011;63123;50.906;4.198;2023-07-13T10:04:46;1.50;;;1.33;;
74616;SDS011;63123;50.906;4.198;2023-07-13T10:07:22;1.40;;;1.30;;
74616;SDS011;63123;50.906;4.198;2023-07-13T10:09:51;1.80;;;1.63;;
74616;SDS011;63123;50.906;4.198;2023-07-13T10:12:19;3.10;;;1.63;;
74616;SDS011;63123;50.906;4.198;2023-07-13T10:14:44;2.38;;;1.60;;
74616;SDS011;63123;50.906;4.198;2023-07-13T10:17:12;3.65;;;1.83;;
74616;SDS011;63123;50.906;4.198;2023-07-13T10:19:39;2.83;;;1.90;;
74616;SDS011;63123;50.906;4.198;2023-07-13T10:22:25;2.40;;;1.73;;
74616;SDS011;63123;50.906;4.198;2023-07-13T10:24:57;2.17;;;1.63;;
74616;SDS011;63123;50.906;4.198;2023-07-13T10:27:25;1.85;;;1.30;;
74616;SDS011;63123;50.906;4.198;2023-07-13T10:30:00;2.05;;;1.52;;
74616;SDS011;63123;50.906;4.198;2023-07-13T10:32:36;1.52;;;1.42;;
74616;SDS011;63123;50.906;4.198;2023-07-13T10:35:02;2.03;;;1.75;;
74616;SDS011;63123;50.906;4.198;2023-07-13T10:37:44;1.92;;;1.48;;
74616;SDS011;63123;50.906;4.198;2023-07-13T10:40:20;2.90;;;1.52;;
74616;SDS011;63123;50.906;4.198;2023-07-13T10:42:52;2.00;;;1.50;;
74616;SDS011;63123;50.906;4.198;2023-07-13T10:45:21;1.70;;;1.40;;
74616;SDS011;63123;50.906;4.198;2023-07-13T10:47:48;1.60;;;1.50;;
74616;SDS011;63123;50.906;4.198;2023-07-13T10:50:25;1.85;;;1.60;;
74616;SDS011;63123;50.906;4.198;2023-07-13T10:52:56;1.42;;;1.30;;
74616;SDS011;63123;50.906;4.198;2023-07-13T10:55:41;1.75;;;1.30;;
74616;SDS011;63123;50.906;4.198;2023-07-13T10:58:41;2.90;;;1.80;;
74616;SDS011;63123;50.906;4.198;2023-07-13T11:01:15;2.30;;;2.08;;
74616;SDS011;63123;50.906;4.198;2023-07-13T11:04:01;1.88;;;1.77;;
74616;SDS011;63123;50.906;4.198;2023-07-13T11:06:31;2.25;;;1.80;;
74616;SDS011;63123;50.906;4.198;2023-07-13T11:11:45;2.22;;;1.98;;
74616;SDS011;63123;50.906;4.198;2023-07-13T11:19:51;1.85;;;1.40;;
74616;SDS011;63123;50.906;4.198;2023-07-13T11:22:21;2.95;;;1.98;;
74616;SDS011;63123;50.906;4.198;2023-07-13T11:25:01;3.10;;;1.83;;
74616;SDS011;63123;50.906;4.198;2023-07-13T11:27:50;1.70;;;1.55;;
74616;SDS011;63123;50.906;4.198;2023-07-13T11:32:49;1.48;;;1.38;;
74616;SDS011;63123;50.906;4.198;2023-07-13T11:35:38;2.40;;;1.60;;
74616;SDS011;63123;50.906;4.198;2023-07-13T11:38:18;2.03;;;1.55;;
74616;SDS011;63123;50.906;4.198;2023-07-13T11:40:47;2.03;;;1.65;;
74616;SDS011;63123;50.906;4.198;2023-07-13T11:43:15;1.85;;;1.63;;
74616;SDS011;63123;50.906;4.198;2023-07-13T11:45:42;1.63;;;1.30;;
74616;SDS011;63123;50.906;4.198;2023-07-13T11:48:21;1.70;;;1.60;;
74616;SDS011;63123;50.906;4.198;2023-07-13T11:50:56;1.90;;;1.45;;
74616;SDS011;63123;50.906;4.198;2023-07-13T11:53:26;2.55;;;1.40;;
74616;SDS011;63123;50.906;4.198;2023-07-13T11:55:54;1.63;;;1.52;;
74616;SDS011;63123;50.906;4.198;2023-07-13T11:58:23;1.42;;;1.33;;
74616;SDS011;63123;50.906;4.198;2023-07-13T12:00:50;1.55;;;1.45;;
74616;SDS011;63123;50.906;4.198;2023-07-13T12:03:20;2.00;;;1.80;;
74616;SDS011;63123;50.906;4.198;2023-07-13T12:05:55;1.73;;;1.58;;
74616;SDS011;63123;50.906;4.198;2023-07-13T12:08:26;2.65;;;1.80;;
74616;SDS011;63123;50.906;4.198;2023-07-13T12:11:25;1.85;;;1.60;;
74616;SDS011;63123;50.906;4.198;2023-07-13T12:13:45;2.15;;;1.50;;
74616;SDS011;63123;50.906;4.198;2023-07-13T12:16:20;2.05;;;1.55;;
74616;SDS011;63123;50.906;4.198;2023-07-13T12:18:54;2.50;;;1.20;;
74616;SDS011;63123;50.906;4.198;2023-07-13T12:21:23;4.13;;;2.42;;
74616;SDS011;63123;50.906;4.198;2023-07-13T12:24:02;2.00;;;1.55;;
74616;SDS011;63123;50.906;4.198;2023-07-13T12:26:29;1.85;;;1.58;;
74616;SDS011;63123;50.906;4.198;2023-07-13T12:28:55;1.80;;;1.70;;
74616;SDS011;63123;50.906;4.198;2023-07-13T12:31:25;2.58;;;1.70;;
74616;SDS011;63123;50.906;4.198;2023-07-13T12:34:02;2.30;;;1.70;;
74616;SDS011;63123;50.906;4.198;2023-07-13T12:36:34;1.52;;;1.30;;
74616;SDS011;63123;50.906;4.198;2023-07-13T12:39:23;3.25;;;1.65;;
74616;SDS011;63123;50.906;4.198;2023-07-13T12:42:09;1.60;;;1.42;;
74616;SDS011;63123;50.906;4.198;2023-07-13T12:44:58;1.83;;;1.20;;
74616;SDS011;63123;50.906;4.198;2023-07-13T12:47:27;2.13;;;1.92;;
74616;SDS011;63123;50.906;4.198;2023-07-13T12:49:57;1.30;;;1.20;;
74616;SDS011;63123;50.906;4.198;2023-07-13T12:52:28;1.95;;;1.45;;
74616;SDS011;63123;50.906;4.198;2023-07-13T12:55:02;1.30;;;1.20;;
74616;SDS011;63123;50.906;4.198;2023-07-13T12:57:58;2.20;;;1.52;;
74616;SDS011;63123;50.906;4.198;2023-07-13T13:02:56;1.77;;;1.38;;
74616;SDS011;63123;50.906;4.198;2023-07-13T13:05:28;1.40;;;1.30;;
74616;SDS011;63123;50.906;4.198;2023-07-13T13:07:57;1.60;;;1.50;;
74616;SDS011;63123;50.906;4.198;2023-07-13T13:10:23;1.48;;;1.33;;
74616;SDS011;63123;50.906;4.198;2023-07-13T13:12:49;2.30;;;2.08;;
74616;SDS011;63123;50.906;4.198;2023-07-13T13:15:15;1.50;;;1.40;;
74616;SDS011;63123;50.906;4.198;2023-07-13T13:17:42;1.70;;;1.55;;
74616;SDS011;63123;50.906;4.198;2023-07-13T13:20:13;2.15;;;1.95;;
74616;SDS011;63123;50.906;4.198;2023-07-13T13:22:41;1.65;;;1.55;;
74616;SDS011;63123;50.906;4.198;2023-07-13T13:25:09;2.53;;;1.75;;
74616;SDS011;63123;50.906;4.198;2023-07-13T13:27:40;1.13;;;1.02;;
74616;SDS011;63123;50.906;4.198;2023-07-13T13:32:38;2.20;;;1.60;;
74616;SDS011;63123;50.906;4.198;2023-07-13T13:35:18;1.95;;;1.58;;
74616;SDS011;63123;50.906;4.198;2023-07-13T13:37:45;1.75;;;1.20;;
74616;SDS011;63123;50.906;4.198;2023-07-13T13:40:17;1.50;;;1.27;;
74616;SDS011;63123;50.906;4.198;2023-07-13T13:42:48;1.23;;;1.13;;
74616;SDS011;63123;50.906;4.198;2023-07-13T13:45:14;1.80;;;1.20;;
74616;SDS011;63123;50.906;4.198;2023-07-13T13:47:42;1.30;;;1.20;;
74616;SDS011;63123;50.906;4.198;2023-07-13T13:50:16;1.60;;;1.50;;
74616;SDS011;63123;50.906;4.198;2023-07-13T13:52:44;3.25;;;1.83;;
74616;SDS011;63123;50.906;4.198;2023-07-13T13:55:20;1.50;;;1.40;;
74616;SDS011;63123;50.906;4.198;2023-07-13T13:57:48;1.52;;;1.42;;
74616;SDS011;63123;50.906;4.198;2023-07-13T14:00:15;1.60;;;1.35;;
74616;SDS011;63123;50.906;4.198;2023-07-13T14:02:43;1.40;;;1.30;;
74616;SDS011;63123;50.906;4.198;2023-07-13T14:05:16;1.70;;;1.30;;
74616;SDS011;63123;50.906;4.198;2023-07-13T14:07:46;1.58;;;1.30;;
74616;SDS011;63123;50.906;4.198;2023-07-13T14:10:14;1.70;;;1.58;;
74616;SDS011;63123;50.906;4.198;2023-07-13T14:12:43;1.30;;;1.20;;
74616;SDS011;63123;50.906;4.198;2023-07-13T14:15:15;1.50;;;1.40;;
74616;SDS011;63123;50.906;4.198;2023-07-13T14:17:45;1.52;;;1.35;;
74616;SDS011;63123;50.906;4.198;2023-07-13T14:20:14;1.75;;;1.65;;
74616;SDS011;63123;50.906;4.198;2023-07-13T14:22:41;1.92;;;1.35;;
74616;SDS011;63123;50.906;4.198;2023-07-13T14:25:10;2.05;;;1.25;;
74616;SDS011;63123;50.906;4.198;2023-07-13T14:27:37;1.80;;;1.27;;
74616;SDS011;63123;50.906;4.198;2023-07-13T14:30:04;1.45;;;1.35;;
74616;SDS011;63123;50.906;4.198;2023-07-13T14:32:40;1.27;;;1.10;;
74616;SDS011;63123;50.906;4.198;2023-07-13T14:35:07;1.77;;;1.25;;
74616;SDS011;63123;50.906;4.198;2023-07-13T14:37:40;1.42;;;1.33;;
74616;SDS011;63123;50.906;4.198;2023-07-13T14:40:14;1.40;;;1.30;;
74616;SDS011;63123;50.906;4.198;2023-07-13T14:42:49;1.20;;;1.10;;
74616;SDS011;63123;50.906;4.198;2023-07-13T14:45:16;2.13;;;1.77;;
74616;SDS011;63123;50.906;4.198;2023-07-13T14:47:43;1.58;;;1.23;;
74616;SDS011;63123;50.906;4.198;2023-07-13T14:50:17;1.90;;;1.17;;
74616;SDS011;63123;50.906;4.198;2023-07-13T14:52:46;1.58;;;1.48;;
74616;SDS011;63123;50.906;4.198;2023-07-13T14:55:13;2.28;;;1.52;;
74616;SDS011;63123;50.906;4.198;2023-07-13T14:57:41;2.53;;;1.70;;
74616;SDS011;63123;50.906;4.198;2023-07-13T15:00:14;1.42;;;1.30;;
74616;SDS011;63123;50.906;4.198;2023-07-13T15:02:50;1.60;;;1.50;;
74616;SDS011;63123;50.906;4.198;2023-07-13T15:05:20;1.48;;;1.38;;
74616;SDS011;63123;50.906;4.198;2023-07-13T15:07:49;1.50;;;1.40;;
74616;SDS011;63123;50.906;4.198;2023-07-13T15:10:19;2.35;;;1.63;;
74616;SDS011;63123;50.906;4.198;2023-07-13T15:12:46;2.08;;;1.45;;
74616;SDS011;63123;50.906;4.198;2023-07-13T15:15:12;1.40;;;1.30;;
74616;SDS011;63123;50.906;4.198;2023-07-13T15:17:39;1.50;;;1.17;;
74616;SDS011;63123;50.906;4.198;2023-07-13T15:20:15;1.75;;;1.65;;
74616;SDS011;63123;50.906;4.198;2023-07-13T15:22:48;1.50;;;1.40;;
74616;SDS011;63123;50.906;4.198;2023-07-13T15:25:16;1.65;;;1.38;;
74616;SDS011;63123;50.906;4.198;2023-07-13T15:27:44;1.65;;;1.50;;